M I D A S
Marine Information and Data Acquisition System
Tripno 1741 of the Zeeleeuw from 2009-07-29 06:19:07 to 2009-07-29 17:33:58
Back to CruiseResearch ActivitiesStationsMapUnderway DataData graphs

EquipmentUnitsComment
TimeDGPSUTC
LatitudeDGPSDM.mWGS84
LongitudeDGPSDM.mWGS84
HeadingGyrodeg 
SOGDGPSknotsSpeed over ground
COGDGPSdegCourse over ground
DepthEcho soundermeters200 kHz
Missing or incorrect values are displayed as -999
Navigation data collected by the RV Zeeleeuw from 2009-07-29 06:05:33 to 2009-07-29 17:36:39
                                                                                    Next 1000 lines
Time Latitude Longitude Heading SOG COG Depth
2009-07-29 06:05:43 51°13.663 2°55.954 110 0.9 292 8.1
2009-07-29 06:05:49 51°13.664 2°55.951 109.9 1.4 293 8
2009-07-29 06:05:53 51°13.664 2°55.948 110 1.7 292 7.9
2009-07-29 06:05:58 51°13.665 2°55.944 110.4 2.1 294 6.1
2009-07-29 06:06:04 51°13.667 2°55.938 110.8 2.3 293 -999
2009-07-29 06:06:09 51°13.669 2°55.933 111.2 2.6 294 -999
2009-07-29 06:06:15 51°13.671 2°55.926 111.8 2.9 295 -999
2009-07-29 06:06:21 51°13.673 2°55.919 111.9 3.1 295 -999
2009-07-29 06:06:26 51°13.674 2°55.912 112 3.3 295 -999
2009-07-29 06:06:32 51°13.677 2°55.904 112.1 3.4 295 -999
2009-07-29 06:06:37 51°13.679 2°55.897 112.1 3.5 295 -999
2009-07-29 06:06:42 51°13.681 2°55.89 112.3 3.5 294 -999
2009-07-29 06:06:47 51°13.683 2°55.883 112.4 3.6 294 -999
2009-07-29 06:06:52 51°13.685 2°55.875 112.6 3.6 294 -999
2009-07-29 06:06:57 51°13.687 2°55.868 113.1 3.7 294 -999
2009-07-29 06:07:02 51°13.689 2°55.86 113.4 3.7 295 -999
2009-07-29 06:07:07 51°13.691 2°55.853 113.9 3.6 295 -999
2009-07-29 06:07:12 51°13.693 2°55.846 114.5 3.6 295 -999
2009-07-29 06:07:17 51°13.695 2°55.839 115.2 3.5 296 -999
2009-07-29 06:07:22 51°13.698 2°55.832 116.2 3.5 297 -999
2009-07-29 06:07:27 51°13.7 2°55.826 117.6 3.5 298 -999
2009-07-29 06:07:32 51°13.702 2°55.819 118.8 3.5 298 -999
2009-07-29 06:07:37 51°13.704 2°55.812 119.7 3.6 300 -999
2009-07-29 06:07:42 51°13.706 2°55.805 120.4 3.6 300 -999
2009-07-29 06:07:47 51°13.709 2°55.798 121.5 3.5 301 -999
2009-07-29 06:07:52 51°13.711 2°55.792 122.8 3.5 302 -999
2009-07-29 06:07:57 51°13.714 2°55.785 124.1 3.5 303 -999
2009-07-29 06:08:02 51°13.717 2°55.779 125.4 3.5 304 -999
2009-07-29 06:08:07 51°13.72 2°55.773 126.8 3.5 305 -999
2009-07-29 06:08:12 51°13.723 2°55.767 128.3 3.4 306 -999
2009-07-29 06:08:17 51°13.726 2°55.76 129.8 3.5 307 -999
2009-07-29 06:08:22 51°13.729 2°55.754 131.3 3.5 309 -999
2009-07-29 06:08:27 51°13.732 2°55.748 132.7 3.6 310 -999
2009-07-29 06:08:32 51°13.735 2°55.742 134.1 3.6 313 -999
2009-07-29 06:08:37 51°13.739 2°55.736 135.8 3.6 313 -999
2009-07-29 06:08:42 51°13.742 2°55.73 136.9 3.7 314 -999
2009-07-29 06:08:47 51°13.746 2°55.725 138.1 3.7 316 -999
2009-07-29 06:08:52 51°13.75 2°55.719 139.4 3.8 317 -999
2009-07-29 06:08:57 51°13.754 2°55.713 140.9 3.8 319 -999
2009-07-29 06:09:02 51°13.758 2°55.708 141.9 3.9 319 -999
2009-07-29 06:09:07 51°13.762 2°55.702 143.1 4 321 -999
2009-07-29 06:09:12 51°13.767 2°55.697 144.2 4.1 322 -999
2009-07-29 06:09:17 51°13.771 2°55.691 145.2 4.2 324 -999
2009-07-29 06:09:22 51°13.776 2°55.686 146.4 4.2 325 -999
2009-07-29 06:09:27 51°13.781 2°55.681 147.4 4.3 326 -999
2009-07-29 06:09:32 51°13.786 2°55.676 148.3 4.3 327 -999
2009-07-29 06:09:37 51°13.791 2°55.67 149.2 4.4 328 -999
2009-07-29 06:09:42 51°13.796 2°55.665 150.3 4.4 329 -999
2009-07-29 06:09:47 51°13.802 2°55.66 151.3 4.5 330 -999
2009-07-29 06:09:52 51°13.807 2°55.656 152.2 4.5 331 -999
2009-07-29 06:09:57 51°13.813 2°55.651 153.2 4.5 332 -999
2009-07-29 06:10:01 51°13.817 2°55.647 154.7 4.4 333 -999
2009-07-29 06:10:07 51°13.824 2°55.643 156.8 4.3 336 -999
2009-07-29 06:10:12 51°13.829 2°55.639 159 4.3 337 -999
2009-07-29 06:10:17 51°13.835 2°55.636 161.5 4.3 340 -999
2009-07-29 06:10:22 51°13.84 2°55.633 164.2 4.2 342 -999
2009-07-29 06:10:27 51°13.846 2°55.63 167 4.2 345 -999
2009-07-29 06:10:32 51°13.851 2°55.628 169.9 4.1 346 -999
2009-07-29 06:10:37 51°13.857 2°55.627 172.9 4.1 350 -999
2009-07-29 06:10:42 51°13.862 2°55.626 176.1 4 353 -999
2009-07-29 06:10:47 51°13.868 2°55.625 179.4 3.9 356 -999
2009-07-29 06:10:52 51°13.873 2°55.625 182.5 3.7 359 -999
2009-07-29 06:10:57 51°13.878 2°55.625 185.4 3.6 1 -999
2009-07-29 06:11:02 51°13.883 2°55.626 188.2 3.5 3 -999
2009-07-29 06:11:07 51°13.887 2°55.627 190.9 3.3 6 -999
2009-07-29 06:11:12 51°13.892 2°55.628 193.6 3.2 8 -999
2009-07-29 06:11:17 51°13.896 2°55.629 196.3 3.1 11 -999
2009-07-29 06:11:22 51°13.9 2°55.63 199.1 3 13 -999
2009-07-29 06:11:27 51°13.904 2°55.632 201.9 2.9 15 -999
2009-07-29 06:11:32 51°13.908 2°55.634 204.7 2.9 18 -999
2009-07-29 06:11:37 51°13.911 2°55.636 207.5 2.9 22 -999
2009-07-29 06:11:42 51°13.915 2°55.639 210.6 2.8 22 -999
2009-07-29 06:11:47 51°13.918 2°55.641 213.5 2.7 25 -999
2009-07-29 06:11:52 51°13.921 2°55.644 216.2 2.7 27 -999
2009-07-29 06:11:57 51°13.924 2°55.647 217.9 2.5 30 -999
2009-07-29 06:12:01 51°13.926 2°55.649 220.3 2.2 31 -999
2009-07-29 06:12:07 51°13.929 2°55.652 223.1 1.8 34 -999
2009-07-29 06:12:11 51°13.93 2°55.653 225.4 1.5 29 13.6
2009-07-29 06:12:16 51°13.932 2°55.655 227.6 1.1 31 4.7
2009-07-29 06:12:21 51°13.933 2°55.655 230.2 0.7 10 13.4
2009-07-29 06:12:26 51°13.933 2°55.655 233.8 0.4 348 13.1
2009-07-29 06:12:31 51°13.934 2°55.654 238.3 0.6 291 12.7
2009-07-29 06:12:36 51°13.934 2°55.652 243.7 1 272 12.7
2009-07-29 06:12:41 51°13.934 2°55.649 248.5 1.4 272 13.5
2009-07-29 06:12:45 51°13.934 2°55.646 256.3 1.8 273 13.3
2009-07-29 06:12:50 51°13.934 2°55.641 262 2.1 277 12.8
2009-07-29 06:12:55 51°13.935 2°55.636 270.8 2.4 283 12.9
2009-07-29 06:13:00 51°13.936 2°55.631 276.5 2.7 289 13.4
2009-07-29 06:13:05 51°13.938 2°55.625 285.3 2.9 295 12.9
2009-07-29 06:13:10 51°13.94 2°55.619 291.1 3.1 301 13.7
2009-07-29 06:13:15 51°13.942 2°55.613 298.3 3.3 306 13.4
2009-07-29 06:13:20 51°13.946 2°55.607 305.4 3.6 313 13.4
2009-07-29 06:13:25 51°13.95 2°55.601 311.8 3.9 316 13.8
2009-07-29 06:13:29 51°13.953 2°55.596 317.4 4.2 322 13.4
2009-07-29 06:13:34 51°13.958 2°55.59 321.7 4.5 321 13.4
2009-07-29 06:13:39 51°13.963 2°55.584 323.5 4.7 325 13.8
2009-07-29 06:13:44 51°13.969 2°55.578 325.3 5 325 13.4
2009-07-29 06:13:49 51°13.975 2°55.571 326.2 5.4 326 13.4
2009-07-29 06:13:53 51°13.981 2°55.565 327 5.8 327 13.4
2009-07-29 06:13:58 51°13.988 2°55.558 327.7 6.1 327 13.4
2009-07-29 06:14:03 51°13.995 2°55.551 327.8 6.4 328 13.5
2009-07-29 06:14:08 51°14.003 2°55.542 327.7 6.7 326 13.4
2009-07-29 06:14:13 51°14.011 2°55.534 327.6 7 327 13.4
2009-07-29 06:14:18 51°14.019 2°55.525 328.2 7.3 328 13.4
2009-07-29 06:14:22 51°14.026 2°55.518 328.2 7.6 327 13.4
2009-07-29 06:14:28 51°14.037 2°55.507 328.1 7.8 328 13.2
2009-07-29 06:14:33 51°14.047 2°55.497 328.3 8 327 13.3
2009-07-29 06:14:38 51°14.056 2°55.487 328.2 8.1 327 13.5
2009-07-29 06:14:42 51°14.064 2°55.48 328.6 8.3 329 13.5
2009-07-29 06:14:48 51°14.076 2°55.468 329.1 8.4 328 13.5
2009-07-29 06:14:53 51°14.086 2°55.458 329.3 8.6 329 13.6
2009-07-29 06:14:58 51°14.097 2°55.448 329.3 8.7 328 13.5
2009-07-29 06:15:03 51°14.107 2°55.437 329.3 8.9 328 13.5
2009-07-29 06:15:08 51°14.118 2°55.427 329.3 9 328 13.5
2009-07-29 06:15:13 51°14.128 2°55.416 329.2 9 327 13.6
2009-07-29 06:15:18 51°14.139 2°55.405 328.3 9.1 326 13.5
2009-07-29 06:15:23 51°14.149 2°55.394 328.2 9.2 327 13.3
2009-07-29 06:15:29 51°14.162 2°55.38 328.2 9.2 325 13.3
2009-07-29 06:15:33 51°14.171 2°55.37 326.7 9.4 324 13.4
2009-07-29 06:15:38 51°14.181 2°55.357 324.8 9.4 322 13.3
2009-07-29 06:15:43 51°14.191 2°55.345 324.2 9.5 322 13.4
2009-07-29 06:15:48 51°14.202 2°55.331 323.1 9.6 319 13.4
2009-07-29 06:15:53 51°14.212 2°55.318 321.3 9.6 319 13.4
2009-07-29 06:15:58 51°14.222 2°55.304 320 9.6 317 13.4
2009-07-29 06:16:03 51°14.231 2°55.289 318.2 9.7 315 13.5
2009-07-29 06:16:08 51°14.24 2°55.273 316.3 9.7 313 13.4
2009-07-29 06:16:13 51°14.25 2°55.257 315.1 9.8 313 13.4
2009-07-29 06:16:18 51°14.259 2°55.241 313.6 9.8 311 13.4
2009-07-29 06:16:22 51°14.266 2°55.228 312.7 9.8 311 12.9
2009-07-29 06:16:28 51°14.277 2°55.208 312.4 9.8 311 13
2009-07-29 06:16:33 51°14.286 2°55.192 312.4 9.8 311 13.1
2009-07-29 06:16:38 51°14.295 2°55.176 312.4 9.8 311 12.9
2009-07-29 06:16:44 51°14.305 2°55.156 312.7 9.8 312 12.9
2009-07-29 06:16:49 51°14.314 2°55.14 312.9 9.8 311 13.6
2009-07-29 06:16:54 51°14.323 2°55.123 312.5 9.8 310 13.5
2009-07-29 06:16:58 51°14.33 2°55.11 312.2 9.8 311 13.5
2009-07-29 06:17:03 51°14.339 2°55.093 312.2 9.9 310 13.3
2009-07-29 06:17:08 51°14.348 2°55.077 311.5 10 310 13
2009-07-29 06:17:14 51°14.359 2°55.056 311.4 10 311 12.9
2009-07-29 06:17:18 51°14.366 2°55.043 312.2 10.1 312 12.8
2009-07-29 06:17:23 51°14.376 2°55.027 312.8 10.1 313 12.5
2009-07-29 06:17:29 51°14.389 2°55.009 314.4 10.2 318 12.4
2009-07-29 06:17:34 51°14.4 2°54.995 317.7 10.3 322 12.5
2009-07-29 06:17:38 51°14.41 2°54.985 321.3 10.4 326 12.5
2009-07-29 06:17:43 51°14.422 2°54.973 324.3 10.5 329 12.5
2009-07-29 06:17:48 51°14.435 2°54.962 327 10.6 331 12.6
2009-07-29 06:17:54 51°14.451 2°54.95 329.7 10.7 334 12.6
2009-07-29 06:17:58 51°14.462 2°54.941 332 10.8 335 12.7
2009-07-29 06:18:02 51°14.473 2°54.933 332 11 334 12.6
2009-07-29 06:18:08 51°14.489 2°54.919 330.3 11.1 332 12.5
2009-07-29 06:18:14 51°14.506 2°54.905 329.3 11.3 333 12.4
2009-07-29 06:18:18 51°14.517 2°54.896 328.3 11.3 331 12.4
2009-07-29 06:18:22 51°14.528 2°54.886 328.1 11.5 333 12.2
2009-07-29 06:18:28 51°14.545 2°54.872 328.7 11.5 333 12.1
2009-07-29 06:18:33 51°14.559 2°54.861 329.1 11.6 333 12.2
2009-07-29 06:18:38 51°14.574 2°54.849 329.1 11.6 332 12.1
2009-07-29 06:18:43 51°14.588 2°54.837 328.7 11.7 332 12
2009-07-29 06:18:49 51°14.605 2°54.822 328.3 11.7 332 12
2009-07-29 06:18:54 51°14.62 2°54.81 328.3 11.7 333 12.1
2009-07-29 06:18:58 51°14.631 2°54.8 328.8 11.7 332 12.1
2009-07-29 06:19:03 51°14.646 2°54.789 328.9 11.7 332 11.9
2009-07-29 06:19:09 51°14.663 2°54.774 328.9 11.8 332 11.8
2009-07-29 06:19:14 51°14.678 2°54.762 328.9 11.8 333 11.9
2009-07-29 06:19:18 51°14.689 2°54.752 328.9 11.8 332 12
2009-07-29 06:19:23 51°14.704 2°54.741 329 11.8 333 11.9
2009-07-29 06:19:28 51°14.718 2°54.729 329.1 11.8 332 11.9
2009-07-29 06:19:34 51°14.735 2°54.714 329.1 11.8 332 12
2009-07-29 06:19:38 51°14.747 2°54.704 328.8 11.7 331 11.9
2009-07-29 06:19:43 51°14.761 2°54.691 328.3 11.8 331 12
2009-07-29 06:19:49 51°14.778 2°54.676 327.8 11.8 331 12
2009-07-29 06:19:54 51°14.793 2°54.664 327.8 11.8 332 11.9
2009-07-29 06:19:58 51°14.804 2°54.654 328.2 11.8 332 11.9
2009-07-29 06:20:03 51°14.818 2°54.641 328.1 11.8 331 12.1
2009-07-29 06:20:09 51°14.835 2°54.626 327.8 11.8 332 12
2009-07-29 06:20:14 51°14.85 2°54.613 327.7 11.8 331 12
2009-07-29 06:20:18 51°14.861 2°54.603 327.4 11.8 331 11.9
2009-07-29 06:20:23 51°14.875 2°54.59 327 11.8 330 12
2009-07-29 06:20:28 51°14.889 2°54.577 326.4 11.8 330 12.1
2009-07-29 06:20:33 51°14.904 2°54.564 326.3 11.8 330 12.4
2009-07-29 06:20:38 51°14.918 2°54.551 325.8 11.8 329 12.5
2009-07-29 06:20:43 51°14.932 2°54.538 325.5 11.8 330 12.5
2009-07-29 06:20:48 51°14.946 2°54.525 325.4 11.8 329 12.4
2009-07-29 06:20:53 51°14.96 2°54.511 325.4 11.8 329 12.4
2009-07-29 06:20:58 51°14.974 2°54.498 325.4 11.7 328 12.4
2009-07-29 06:21:04 51°14.991 2°54.482 325.2 11.7 329 12.6
2009-07-29 06:21:09 51°15.004 2°54.468 325.1 11.7 328 12.6
2009-07-29 06:21:14 51°15.018 2°54.453 324.5 11.7 328 12.8
2009-07-29 06:21:19 51°15.031 2°54.439 324.5 11.7 328 12.7
2009-07-29 06:21:23 51°15.042 2°54.429 325.2 11.7 329 12.7
2009-07-29 06:21:28 51°15.056 2°54.416 326 11.7 329 12.7
2009-07-29 06:21:34 51°15.073 2°54.399 326 11.7 328 12.7
2009-07-29 06:21:39 51°15.087 2°54.387 326.7 11.7 330 12.8
2009-07-29 06:21:43 51°15.098 2°54.376 327.3 11.8 330 12.7
2009-07-29 06:21:48 51°15.112 2°54.363 327.6 11.8 330 12.8
2009-07-29 06:21:54 51°15.129 2°54.348 328 11.8 330 12.8
2009-07-29 06:21:59 51°15.143 2°54.335 328.1 11.8 330 12.9
2009-07-29 06:22:03 51°15.155 2°54.324 327.9 11.8 330 12.9
2009-07-29 06:22:07 51°15.166 2°54.314 328.1 11.8 331 12.8
2009-07-29 06:22:13 51°15.183 2°54.299 328.5 11.8 331 12.8
2009-07-29 06:22:19 51°15.2 2°54.283 328.3 11.8 330 12.9
2009-07-29 06:22:23 51°15.211 2°54.272 327.5 11.8 329 12.7
2009-07-29 06:22:28 51°15.225 2°54.259 326.9 11.7 329 12.5
2009-07-29 06:22:34 51°15.242 2°54.243 326.5 11.7 328 12.4
2009-07-29 06:22:39 51°15.255 2°54.229 325.8 11.7 328 12.3
2009-07-29 06:22:43 51°15.267 2°54.218 325.5 11.7 328 11.9
2009-07-29 06:22:48 51°15.28 2°54.204 325.2 11.7 328 12.1
2009-07-29 06:22:54 51°15.297 2°54.188 325.5 11.7 329 12
2009-07-29 06:22:59 51°15.311 2°54.175 325.7 11.7 328 11.9
2009-07-29 06:23:04 51°15.324 2°54.161 325.8 11.7 329 11.7
2009-07-29 06:23:09 51°15.339 2°54.148 326.1 11.7 329 11.8
2009-07-29 06:23:13 51°15.35 2°54.137 326.1 11.7 328 11.8
2009-07-29 06:23:18 51°15.363 2°54.123 325.6 11.6 328 11.8
2009-07-29 06:23:24 51°15.38 2°54.108 325.9 11.7 329 11.8
2009-07-29 06:23:28 51°15.391 2°54.097 325.9 11.7 328 12
2009-07-29 06:23:32 51°15.402 2°54.086 325.8 11.7 329 12
2009-07-29 06:23:38 51°15.419 2°54.07 326.1 11.7 329 12
2009-07-29 06:23:44 51°15.436 2°54.054 326.5 11.7 330 12.1
2009-07-29 06:23:48 51°15.447 2°54.044 326.7 11.7 329 12.2
2009-07-29 06:23:53 51°15.461 2°54.031 326.7 11.7 330 12.2
2009-07-29 06:23:58 51°15.475 2°54.018 327.2 11.7 331 12.3
2009-07-29 06:24:04 51°15.492 2°54.003 328.3 11.8 332 12.3
2009-07-29 06:24:08 51°15.504 2°53.993 328.9 11.7 332 12.4
2009-07-29 06:24:13 51°15.518 2°53.981 329.2 11.8 332 12.4
2009-07-29 06:24:18 51°15.532 2°53.968 328.9 11.7 331 12.4
2009-07-29 06:24:24 51°15.549 2°53.954 328.9 11.8 333 12.6
2009-07-29 06:24:28 51°15.561 2°53.944 329.3 11.7 332 12.5
2009-07-29 06:24:32 51°15.572 2°53.934 329 11.7 332 12.7
2009-07-29 06:24:38 51°15.59 2°53.919 328.9 11.7 331 12.7
2009-07-29 06:24:44 51°15.607 2°53.904 328.8 11.8 332 12.7
2009-07-29 06:24:48 51°15.618 2°53.894 328.7 11.7 331 12.8
2009-07-29 06:24:53 51°15.633 2°53.882 328.9 11.8 332 12.8
2009-07-29 06:24:59 51°15.65 2°53.868 329 11.8 332 12.9
2009-07-29 06:25:04 51°15.664 2°53.856 329.2 11.7 332 13.1
2009-07-29 06:25:08 51°15.676 2°53.846 329.2 11.7 332 12.9
2009-07-29 06:25:12 51°15.687 2°53.836 328.9 11.7 332 13
2009-07-29 06:25:18 51°15.704 2°53.821 328.8 11.7 332 13.1
2009-07-29 06:25:24 51°15.722 2°53.807 328.7 11.7 332 13.1
2009-07-29 06:25:28 51°15.733 2°53.797 328.7 11.8 332 13.2
2009-07-29 06:25:32 51°15.745 2°53.787 329 11.8 333 13.3
2009-07-29 06:25:38 51°15.762 2°53.773 329.3 11.8 333 13.3
2009-07-29 06:25:44 51°15.78 2°53.759 329.3 11.8 333 13.3
2009-07-29 06:25:48 51°15.791 2°53.75 329.4 11.8 333 13.3
2009-07-29 06:25:53 51°15.806 2°53.738 329.6 11.8 333 13.3
2009-07-29 06:25:58 51°15.82 2°53.726 329.6 11.8 333 13.4
2009-07-29 06:26:04 51°15.838 2°53.712 329.1 11.8 333 13.6
2009-07-29 06:26:08 51°15.849 2°53.702 329 11.8 333 13.6
2009-07-29 06:26:13 51°15.864 2°53.691 328.9 11.8 333 13.5
2009-07-29 06:26:18 51°15.879 2°53.679 329.1 11.8 334 13.1
2009-07-29 06:26:23 51°15.893 2°53.667 329.3 11.8 333 13.2
2009-07-29 06:26:28 51°15.908 2°53.656 329.6 11.8 334 13.6
2009-07-29 06:26:33 51°15.922 2°53.644 329.5 11.7 333 13.6
2009-07-29 06:26:38 51°15.937 2°53.632 328.9 11.7 333 13.5
2009-07-29 06:26:44 51°15.954 2°53.618 328.9 11.7 333 13.7
2009-07-29 06:26:48 51°15.966 2°53.609 329.2 11.8 333 13.7
2009-07-29 06:26:53 51°15.98 2°53.597 329.2 11.8 333 13.6
2009-07-29 06:26:59 51°15.998 2°53.583 328.9 11.8 333 13.5
2009-07-29 06:27:04 51°16.012 2°53.571 328.7 11.7 333 13.6
2009-07-29 06:27:08 51°16.024 2°53.562 328.8 11.7 333 13.7
2009-07-29 06:27:13 51°16.038 2°53.55 328.9 11.8 333 13.7
2009-07-29 06:27:18 51°16.053 2°53.539 329 11.8 333 13.8
2009-07-29 06:27:24 51°16.07 2°53.524 329 11.7 333 13.7
2009-07-29 06:27:28 51°16.082 2°53.515 328.7 11.7 333 13.8
2009-07-29 06:27:32 51°16.094 2°53.505 328.7 11.8 333 13.8
2009-07-29 06:27:38 51°16.111 2°53.491 329.1 11.8 333 13.9
2009-07-29 06:27:44 51°16.128 2°53.477 329.1 11.8 333 13.9
2009-07-29 06:27:48 51°16.14 2°53.467 329 11.8 333 13.8
2009-07-29 06:27:53 51°16.155 2°53.456 328.9 11.8 333 13.9
2009-07-29 06:27:58 51°16.169 2°53.444 329.3 11.8 334 13.9
2009-07-29 06:28:04 51°16.187 2°53.43 329.3 11.8 333 13.9
2009-07-29 06:28:08 51°16.198 2°53.421 329.1 11.8 333 14
2009-07-29 06:28:13 51°16.213 2°53.409 329.6 11.8 334 14.1
2009-07-29 06:28:18 51°16.228 2°53.398 330.3 11.8 335 13.9
2009-07-29 06:28:23 51°16.243 2°53.387 330.5 11.8 334 13.9
2009-07-29 06:28:28 51°16.257 2°53.375 330.6 11.8 334 13.9
2009-07-29 06:28:33 51°16.272 2°53.364 330.1 11.8 334 13.9
2009-07-29 06:28:38 51°16.287 2°53.352 329.6 11.8 334 14
2009-07-29 06:28:44 51°16.304 2°53.337 329.3 11.8 333 14.1
2009-07-29 06:28:49 51°16.319 2°53.326 329 11.8 334 14.1
2009-07-29 06:28:53 51°16.331 2°53.317 329.2 11.8 334 14
2009-07-29 06:28:58 51°16.345 2°53.305 329.1 11.8 333 14
2009-07-29 06:29:04 51°16.363 2°53.292 328.9 11.8 333 14.1
2009-07-29 06:29:08 51°16.375 2°53.283 328.9 11.8 334 14
2009-07-29 06:29:13 51°16.389 2°53.271 329.9 11.9 335 14.1
2009-07-29 06:29:19 51°16.407 2°53.258 330.4 11.9 335 14.1
2009-07-29 06:29:24 51°16.422 2°53.247 330.9 11.9 335 14
2009-07-29 06:29:28 51°16.434 2°53.238 331.1 11.9 335 14
2009-07-29 06:29:32 51°16.446 2°53.229 330.6 11.9 334 14
2009-07-29 06:29:38 51°16.464 2°53.215 330.1 11.9 334 14
2009-07-29 06:29:44 51°16.481 2°53.201 329.7 11.8 334 13.9
2009-07-29 06:29:48 51°16.493 2°53.192 329.5 11.8 334 13.9
2009-07-29 06:29:52 51°16.505 2°53.182 328.7 11.8 332 13.9
2009-07-29 06:29:58 51°16.522 2°53.168 328.6 11.8 333 13.8
2009-07-29 06:30:04 51°16.54 2°53.153 328.7 11.8 333 13.8
2009-07-29 06:30:08 51°16.551 2°53.144 328.7 11.8 333 13.9
2009-07-29 06:30:13 51°16.566 2°53.132 328.6 11.8 333 13.9
2009-07-29 06:30:19 51°16.583 2°53.117 328.6 11.8 333 13.8
2009-07-29 06:30:24 51°16.597 2°53.106 328.6 11.7 333 13.8
2009-07-29 06:30:28 51°16.609 2°53.096 328.6 11.8 333 13.7
2009-07-29 06:30:33 51°16.623 2°53.084 328.9 11.8 333 13.6
2009-07-29 06:30:38 51°16.638 2°53.073 328.8 11.7 333 13.7
2009-07-29 06:30:44 51°16.656 2°53.059 329.2 11.8 334 13.6
2009-07-29 06:30:48 51°16.667 2°53.049 328.9 11.8 332 13.6
2009-07-29 06:30:53 51°16.682 2°53.037 328.8 11.8 333 13.4
2009-07-29 06:30:58 51°16.696 2°53.025 329.1 11.7 333 13.4
2009-07-29 06:31:04 51°16.713 2°53.011 328.9 11.8 333 13.3
2009-07-29 06:31:08 51°16.725 2°53.001 328.9 11.8 333 13.2
2009-07-29 06:31:12 51°16.737 2°52.992 328.9 11.8 333 12.9
2009-07-29 06:31:18 51°16.754 2°52.977 328.9 11.8 333 12.9
2009-07-29 06:31:23 51°16.768 2°52.966 328.9 11.8 332 12.6
2009-07-29 06:31:28 51°16.783 2°52.953 328.8 11.8 332 12.4
2009-07-29 06:31:33 51°16.797 2°52.942 329.2 11.8 333 11.8
2009-07-29 06:31:39 51°16.815 2°52.927 329 11.8 332 11.6
2009-07-29 06:31:44 51°16.829 2°52.915 328.7 11.8 332 11.3
2009-07-29 06:31:48 51°16.841 2°52.905 329 11.8 333 11.4
2009-07-29 06:31:53 51°16.855 2°52.893 328.9 11.7 332 11.2
2009-07-29 06:31:59 51°16.872 2°52.878 328.6 11.7 332 11.3
2009-07-29 06:32:04 51°16.886 2°52.866 328.6 11.7 332 11.2
2009-07-29 06:32:08 51°16.898 2°52.856 328.4 11.7 332 11.3
2009-07-29 06:32:13 51°16.912 2°52.844 328.7 11.8 332 11.4
2009-07-29 06:32:18 51°16.927 2°52.832 328.9 11.8 332 11.5
2009-07-29 06:32:24 51°16.944 2°52.817 329 11.9 333 11.5
2009-07-29 06:32:28 51°16.956 2°52.808 329.5 11.9 333 11.7
2009-07-29 06:32:33 51°16.971 2°52.796 329.6 11.9 332 11.6
2009-07-29 06:32:38 51°16.985 2°52.784 329.4 11.9 332 11.8
2009-07-29 06:32:44 51°17.003 2°52.769 329.3 11.9 333 11.8
2009-07-29 06:32:48 51°17.015 2°52.76 330.3 12 334 12
2009-07-29 06:32:53 51°17.03 2°52.749 330.7 12 333 12.1
2009-07-29 06:32:58 51°17.045 2°52.737 331 12 335 12.2
2009-07-29 06:33:03 51°17.06 2°52.725 331.2 12 334 12.1
2009-07-29 06:33:08 51°17.074 2°52.713 330.9 12 333 12.2
2009-07-29 06:33:13 51°17.089 2°52.701 330.3 12 333 11.9
2009-07-29 06:33:19 51°17.107 2°52.687 330.4 11.9 333 11.7
2009-07-29 06:33:23 51°17.119 2°52.677 330.9 11.9 334 11.7
2009-07-29 06:33:28 51°17.134 2°52.665 330.8 11.9 333 11.7
2009-07-29 06:33:33 51°17.149 2°52.654 331.1 12 334 11.8
2009-07-29 06:33:39 51°17.167 2°52.64 331.3 12 334 11.7
2009-07-29 06:33:44 51°17.182 2°52.629 331.3 12 334 11.8
2009-07-29 06:33:48 51°17.194 2°52.619 331.2 12 333 11.9
2009-07-29 06:33:53 51°17.209 2°52.608 331.1 12 334 11.9
2009-07-29 06:33:58 51°17.223 2°52.595 330.8 12 333 12.1
2009-07-29 06:34:04 51°17.241 2°52.581 330.6 12 334 12.2
2009-07-29 06:34:08 51°17.253 2°52.572 330.6 12 334 12.1
2009-07-29 06:34:12 51°17.266 2°52.564 333 12 341 12
2009-07-29 06:34:18 51°17.285 2°52.555 337 12 341 12.1
2009-07-29 06:34:24 51°17.304 2°52.545 338.5 12 342 12.2
2009-07-29 06:34:28 51°17.317 2°52.541 341.3 12.1 346 12.2
2009-07-29 06:34:32 51°17.33 2°52.535 342.9 12.1 346 12.3
2009-07-29 06:34:38 51°17.35 2°52.53 344.7 12.1 350 12.1
2009-07-29 06:34:44 51°17.37 2°52.524 347.2 12.1 351 12.4
2009-07-29 06:34:48 51°17.383 2°52.524 352.3 12.2 359 12.3
2009-07-29 06:34:53 51°17.4 2°52.523 355.2 12.1 356 12.3
2009-07-29 06:34:58 51°17.417 2°52.523 356.9 12.2 1 12.3
2009-07-29 06:35:04 51°17.437 2°52.523 359.3 12.2 1 12.4
2009-07-29 06:35:08 51°17.451 2°52.524 0.2 12.3 2 12.5
2009-07-29 06:35:12 51°17.464 2°52.527 2 12.3 5 12.5
2009-07-29 06:35:18 51°17.485 2°52.53 3.7 12.3 7 12.4
2009-07-29 06:35:24 51°17.504 2°52.539 8.6 12.3 15 12.3
2009-07-29 06:35:28 51°17.517 2°52.546 14.9 12.2 19 12.6
2009-07-29 06:35:32 51°17.529 2°52.554 20.9 12.2 24 12.3
2009-07-29 06:35:38 51°17.547 2°52.569 25.8 12.2 27 12.2
2009-07-29 06:35:43 51°17.563 2°52.581 26.9 12.3 29 12.3
2009-07-29 06:35:48 51°17.577 2°52.595 29.8 12.3 29 12.3
2009-07-29 06:35:53 51°17.593 2°52.608 31.1 12.5 31 12.6
2009-07-29 06:35:59 51°17.61 2°52.626 32.4 12.5 32 12.4
2009-07-29 06:36:04 51°17.625 2°52.641 33.5 12.5 32 12.4
2009-07-29 06:36:08 51°17.636 2°52.653 34.4 12.6 34 12.4
2009-07-29 06:36:13 51°17.651 2°52.668 34.9 12.5 33 12.6
2009-07-29 06:36:19 51°17.668 2°52.687 35.8 12.6 35 12.6
2009-07-29 06:36:24 51°17.683 2°52.703 36.1 12.6 33 12.4
2009-07-29 06:36:28 51°17.694 2°52.716 37 12.6 38 12.5
2009-07-29 06:36:32 51°17.704 2°52.73 39.3 12.5 38 12.3
2009-07-29 06:36:38 51°17.721 2°52.75 39.9 12.6 37 12.3
2009-07-29 06:36:44 51°17.737 2°52.772 41.3 12.6 41 12.2
2009-07-29 06:36:48 51°17.748 2°52.786 42.3 12.6 39 12.2
2009-07-29 06:36:52 51°17.758 2°52.801 43.2 12.6 42 12.2
2009-07-29 06:36:58 51°17.774 2°52.823 43.7 12.6 41 12.3
2009-07-29 06:37:04 51°17.789 2°52.846 44.6 12.6 43 12.1
2009-07-29 06:37:08 51°17.8 2°52.86 44.8 12.6 41 12.2
2009-07-29 06:37:12 51°17.81 2°52.876 44.7 12.6 42 12.1
2009-07-29 06:37:18 51°17.826 2°52.898 45.1 12.6 43 12.3
2009-07-29 06:37:24 51°17.841 2°52.921 45.4 12.6 43 12.5
2009-07-29 06:37:28 51°17.852 2°52.936 45.5 12.6 43 12.5
2009-07-29 06:37:33 51°17.864 2°52.955 45.5 12.7 42 12.3
2009-07-29 06:37:39 51°17.88 2°52.979 46 12.6 44 12.3
2009-07-29 06:37:43 51°17.89 2°52.994 46.3 12.6 43 12.2
2009-07-29 06:37:48 51°17.902 2°53.013 46.9 12.7 44 12.4
2009-07-29 06:37:53 51°17.915 2°53.033 46.6 12.7 43 12.4
2009-07-29 06:37:59 51°17.93 2°53.056 47 12.6 45 12.3
2009-07-29 06:38:04 51°17.943 2°53.076 47.6 12.6 44 12.4
2009-07-29 06:38:08 51°17.953 2°53.092 47.5 12.7 45 12.6
2009-07-29 06:38:12 51°17.963 2°53.107 47 12.7 43 12.5
2009-07-29 06:38:18 51°17.978 2°53.13 46.6 12.7 44 12.5
2009-07-29 06:38:24 51°17.994 2°53.153 46.2 12.6 43 12.7
2009-07-29 06:38:28 51°18.004 2°53.169 46.2 12.7 44 12.5
2009-07-29 06:38:32 51°18.014 2°53.184 46.4 12.6 43 12.4
2009-07-29 06:38:38 51°18.03 2°53.207 46.2 12.6 43 12.5
2009-07-29 06:38:44 51°18.045 2°53.23 46 12.7 43 12.5
2009-07-29 06:38:48 51°18.055 2°53.246 46.1 12.7 44 12.4
2009-07-29 06:38:53 51°18.068 2°53.265 46.5 12.7 44 12.6
2009-07-29 06:38:59 51°18.083 2°53.288 46.9 12.6 44 12.5
2009-07-29 06:39:04 51°18.096 2°53.307 46.8 12.6 43 12.5
2009-07-29 06:39:08 51°18.106 2°53.323 46.6 12.6 44 12.6
2009-07-29 06:39:13 51°18.118 2°53.342 46.4 12.6 43 12.4
2009-07-29 06:39:18 51°18.131 2°53.361 46 12.6 43 12.5
2009-07-29 06:39:24 51°18.147 2°53.384 46 12.6 43 12.6
2009-07-29 06:39:28 51°18.157 2°53.4 46.1 12.6 43 12.6
2009-07-29 06:39:32 51°18.167 2°53.415 46.6 12.6 44 12.7
2009-07-29 06:39:38 51°18.182 2°53.438 46.7 12.6 43 12.6
2009-07-29 06:39:44 51°18.197 2°53.462 46.9 12.6 44 12.7
2009-07-29 06:39:48 51°18.208 2°53.477 46.6 12.6 43 12.7
2009-07-29 06:39:52 51°18.218 2°53.492 46.4 12.6 43 12.7
2009-07-29 06:39:58 51°18.233 2°53.515 46.4 12.6 43 12.6
2009-07-29 06:40:04 51°18.249 2°53.538 46.1 12.6 43 12.5
2009-07-29 06:40:08 51°18.259 2°53.553 45.9 12.6 43 12.6
2009-07-29 06:40:13 51°18.271 2°53.572 46.1 12.6 43 12.7
2009-07-29 06:40:19 51°18.287 2°53.595 45.9 12.6 43 12.9
2009-07-29 06:40:24 51°18.3 2°53.614 45.7 12.6 43 12.7
2009-07-29 06:40:28 51°18.31 2°53.629 46 12.6 44 12.7
2009-07-29 06:40:33 51°18.322 2°53.649 47 12.7 44 12.7
2009-07-29 06:40:39 51°18.337 2°53.673 47.2 12.7 45 12.9
2009-07-29 06:40:44 51°18.349 2°53.692 47.7 12.5 45 12.7
2009-07-29 06:40:48 51°18.359 2°53.708 48 12.6 45 12.8
2009-07-29 06:40:54 51°18.374 2°53.731 47.3 12.7 44 12.8
2009-07-29 06:40:58 51°18.384 2°53.747 47.1 12.6 44 12.9
2009-07-29 06:41:04 51°18.399 2°53.77 47.2 12.6 45 12.9
2009-07-29 06:41:08 51°18.409 2°53.786 47.8 12.7 45 12.8
2009-07-29 06:41:13 51°18.422 2°53.806 48 12.7 45 12.9
2009-07-29 06:41:19 51°18.436 2°53.83 48.1 12.7 45 12.8
2009-07-29 06:41:24 51°18.449 2°53.849 47.7 12.6 44 12.9
2009-07-29 06:41:28 51°18.459 2°53.865 47.6 12.6 44 13
2009-07-29 06:41:33 51°18.472 2°53.884 47.1 12.6 44 12.9
2009-07-29 06:41:39 51°18.487 2°53.907 47.1 12.6 43 13
2009-07-29 06:41:44 51°18.499 2°53.927 46.5 12.6 43 13
2009-07-29 06:41:48 51°18.509 2°53.942 46.5 12.6 44 12.9
2009-07-29 06:41:53 51°18.522 2°53.961 46 12.6 44 12.8
2009-07-29 06:41:58 51°18.534 2°53.981 47.4 12.6 46 13
2009-07-29 06:42:04 51°18.549 2°54.004 47.3 12.7 44 12.9
2009-07-29 06:42:08 51°18.559 2°54.02 47.9 12.6 46 13
2009-07-29 06:42:13 51°18.572 2°54.04 48.4 12.6 45 13.1
2009-07-29 06:42:18 51°18.584 2°54.06 49 12.6 46 13
2009-07-29 06:42:24 51°18.599 2°54.084 48.5 12.6 45 12.9
2009-07-29 06:42:28 51°18.608 2°54.099 47.9 12.6 45 13
2009-07-29 06:42:32 51°18.618 2°54.115 47.4 12.6 44 13.1
2009-07-29 06:42:38 51°18.633 2°54.138 47.9 12.6 46 13.1
2009-07-29 06:42:43 51°18.645 2°54.158 48 12.6 45 13
2009-07-29 06:42:48 51°18.657 2°54.178 48.6 12.5 46 13
2009-07-29 06:42:53 51°18.67 2°54.198 48.3 12.6 44 13.1
2009-07-29 06:42:59 51°18.685 2°54.221 47.1 12.6 44 13.1
2009-07-29 06:43:04 51°18.697 2°54.24 47.3 12.5 45 13.1
2009-07-29 06:43:08 51°18.708 2°54.256 47.3 12.6 43 13.2
2009-07-29 06:43:14 51°18.722 2°54.279 46.6 12.6 45 13.2
2009-07-29 06:43:19 51°18.735 2°54.298 46.7 12.5 44 13.2
2009-07-29 06:43:24 51°18.747 2°54.318 47.2 12.5 45 13
2009-07-29 06:43:28 51°18.757 2°54.334 47.9 12.6 45 13.1
2009-07-29 06:43:33 51°18.77 2°54.353 47.7 12.6 44 13.1
2009-07-29 06:43:38 51°18.782 2°54.373 47.9 12.6 45 13.2
2009-07-29 06:43:43 51°18.794 2°54.392 47.8 12.6 44 13.2
2009-07-29 06:43:48 51°18.807 2°54.411 46.8 12.6 44 13.3
2009-07-29 06:43:53 51°18.819 2°54.431 47 12.5 45 13.2
2009-07-29 06:43:58 51°18.832 2°54.45 46.8 12.6 43 13.2
2009-07-29 06:44:04 51°18.847 2°54.473 46.4 12.6 44 13.2
2009-07-29 06:44:08 51°18.857 2°54.488 46.1 12.6 43 13.3
2009-07-29 06:44:12 51°18.867 2°54.504 46.4 12.5 44 13.2
2009-07-29 06:44:18 51°18.882 2°54.527 46.6 12.6 44 13.3
2009-07-29 06:44:24 51°18.897 2°54.55 46.6 12.5 44 13.3
2009-07-29 06:44:28 51°18.907 2°54.565 46.6 12.6 44 13.4
2009-07-29 06:44:32 51°18.918 2°54.581 46.5 12.6 43 13.4
2009-07-29 06:44:38 51°18.933 2°54.603 46 12.6 43 13.3
2009-07-29 06:44:43 51°18.945 2°54.623 46.6 12.5 44 13.4
2009-07-29 06:44:48 51°18.958 2°54.642 46.6 12.5 44 13.3
2009-07-29 06:44:52 51°18.968 2°54.658 46.6 12.5 44 13.2
2009-07-29 06:44:58 51°18.983 2°54.681 46.4 12.6 44 13.3
2009-07-29 06:45:03 51°18.995 2°54.7 46.9 12.6 45 13.3
2009-07-29 06:45:08 51°19.007 2°54.72 47.5 12.6 46 13.4
2009-07-29 06:45:13 51°19.02 2°54.74 48.1 12.6 45 13.4
2009-07-29 06:45:18 51°19.032 2°54.759 48.1 12.6 46 13.4
2009-07-29 06:45:24 51°19.046 2°54.783 48.6 12.6 46 13.4
2009-07-29 06:45:29 51°19.059 2°54.804 48.7 12.6 46 13.5
2009-07-29 06:45:33 51°19.068 2°54.819 48.8 12.6 45 13.4
2009-07-29 06:45:38 51°19.081 2°54.839 48.4 12.6 46 13.5
2009-07-29 06:45:43 51°19.093 2°54.859 47.7 12.6 43 13.5
2009-07-29 06:45:48 51°19.106 2°54.878 47 12.6 45 13.3
2009-07-29 06:45:53 51°19.118 2°54.898 47.3 12.6 43 13.5
2009-07-29 06:45:59 51°19.133 2°54.921 46.4 12.6 43 13.4
2009-07-29 06:46:04 51°19.146 2°54.941 47.4 12.6 45 13.5
2009-07-29 06:46:08 51°19.155 2°54.956 47.7 12.6 45 13.5
2009-07-29 06:46:13 51°19.167 2°54.977 48.4 12.6 46 13.4
2009-07-29 06:46:18 51°19.18 2°54.997 48.5 12.6 46 13.4
2009-07-29 06:46:24 51°19.195 2°55.02 48.7 12.6 46 13.5
2009-07-29 06:46:29 51°19.207 2°55.04 48.2 12.6 45 13.5
2009-07-29 06:46:33 51°19.217 2°55.056 47.7 12.6 45 13.6
2009-07-29 06:46:38 51°19.23 2°55.076 47.3 12.6 44 13.5
2009-07-29 06:46:44 51°19.245 2°55.101 47.7 12.6 46 13.5
2009-07-29 06:46:49 51°19.257 2°55.12 47.7 12.5 44 13.4
2009-07-29 06:46:53 51°19.267 2°55.136 47.3 12.5 45 13.6
2009-07-29 06:46:58 51°19.28 2°55.155 46.5 12.5 43 13.5
2009-07-29 06:47:03 51°19.292 2°55.174 46.6 12.5 45 13.7
2009-07-29 06:47:09 51°19.308 2°55.197 46.4 12.5 43 13.6
2009-07-29 06:47:14 51°19.32 2°55.217 46.1 12.6 44 13.5
2009-07-29 06:47:18 51°19.33 2°55.232 47 12.5 45 13.6
2009-07-29 06:47:24 51°19.345 2°55.255 47 12.6 44 13.7
2009-07-29 06:47:28 51°19.355 2°55.271 47.5 12.5 45 13.6
2009-07-29 06:47:33 51°19.367 2°55.29 48 12.5 44 13.6
2009-07-29 06:47:38 51°19.379 2°55.31 47.9 12.5 45 13.7
2009-07-29 06:47:43 51°19.392 2°55.329 47.6 12.5 45 13.7
2009-07-29 06:47:49 51°19.407 2°55.352 47.2 12.5 44 13.6
2009-07-29 06:47:53 51°19.416 2°55.368 47.3 12.5 45 13.6
2009-07-29 06:47:58 51°19.429 2°55.387 47.3 12.5 44 13.7
2009-07-29 06:48:04 51°19.444 2°55.41 46.5 12.5 44 13.7
2009-07-29 06:48:09 51°19.457 2°55.429 46.3 12.5 43 13.7
2009-07-29 06:48:13 51°19.467 2°55.444 46 12.5 44 13.6
2009-07-29 06:48:18 51°19.479 2°55.463 46 12.5 43 13.7
2009-07-29 06:48:24 51°19.494 2°55.486 46 12.5 43 13.7
2009-07-29 06:48:28 51°19.504 2°55.501 45.8 12.4 44 13.7
2009-07-29 06:48:33 51°19.517 2°55.52 46.2 12.5 43 13.7
2009-07-29 06:48:38 51°19.53 2°55.539 46.2 12.5 43 13.8
2009-07-29 06:48:44 51°19.545 2°55.562 45.8 12.5 43 13.8
2009-07-29 06:48:48 51°19.554 2°55.577 46.1 12.4 44 13.6
2009-07-29 06:48:53 51°19.567 2°55.597 46.5 12.5 44 13.7
2009-07-29 06:48:58 51°19.579 2°55.616 46.6 12.5 44 13.9
2009-07-29 06:49:04 51°19.594 2°55.639 46.7 12.5 45 13.8
2009-07-29 06:49:09 51°19.607 2°55.658 47.1 12.5 44 13.6
2009-07-29 06:49:13 51°19.617 2°55.674 47.5 12.5 45 13.8
2009-07-29 06:49:18 51°19.629 2°55.694 48 12.6 45 13.7
2009-07-29 06:49:23 51°19.641 2°55.714 48.3 12.6 45 13.7
2009-07-29 06:49:29 51°19.656 2°55.737 48.4 12.6 45 13.8
2009-07-29 06:49:33 51°19.666 2°55.753 48.6 12.6 46 13.8
2009-07-29 06:49:38 51°19.678 2°55.773 48.8 12.5 46 13.8
2009-07-29 06:49:44 51°19.692 2°55.797 49.1 12.5 46 13.9
2009-07-29 06:49:48 51°19.702 2°55.813 49.4 12.6 46 13.9
2009-07-29 06:49:53 51°19.714 2°55.833 49 12.5 45 13.7
2009-07-29 06:49:58 51°19.727 2°55.852 48 12.6 44 13.8
2009-07-29 06:50:04 51°19.742 2°55.876 47.7 12.6 45 14
2009-07-29 06:50:08 51°19.752 2°55.891 47.5 12.6 44 13.9
2009-07-29 06:50:13 51°19.764 2°55.911 46.9 12.6 43 13.8
2009-07-29 06:50:18 51°19.777 2°55.93 46.6 12.6 44 14
2009-07-29 06:50:24 51°19.792 2°55.953 46.3 12.6 43 13.9
2009-07-29 06:50:29 51°19.805 2°55.972 46.7 12.6 44 13.8
2009-07-29 06:50:33 51°19.815 2°55.987 46.4 12.5 43 13.8
2009-07-29 06:50:38 51°19.827 2°56.007 46.6 12.6 44 13.9
2009-07-29 06:50:43 51°19.841 2°56.026 45.9 12.6 42 14
2009-07-29 06:50:48 51°19.853 2°56.045 46.4 12.6 45 13.9
2009-07-29 06:50:53 51°19.866 2°56.064 46.5 12.6 43 13.9
2009-07-29 06:50:58 51°19.878 2°56.084 46.3 12.6 44 13.7
2009-07-29 06:51:04 51°19.893 2°56.106 46.4 12.6 44 13.9
2009-07-29 06:51:08 51°19.903 2°56.122 46.8 12.5 45 14
2009-07-29 06:51:13 51°19.915 2°56.141 46.8 12.5 44 14
2009-07-29 06:51:18 51°19.928 2°56.161 46.8 12.5 44 13.9
2009-07-29 06:51:24 51°19.943 2°56.184 46.7 12.5 44 13.8
2009-07-29 06:51:29 51°19.955 2°56.203 46.5 12.5 44 13.9
2009-07-29 06:51:33 51°19.965 2°56.219 47.1 12.5 45 14.2
2009-07-29 06:51:38 51°19.977 2°56.238 47.3 12.5 44 14.1
2009-07-29 06:51:43 51°19.99 2°56.258 46.7 12.5 44 13.7
2009-07-29 06:51:49 51°20.005 2°56.28 46.6 12.4 44 13.9
2009-07-29 06:51:53 51°20.015 2°56.296 46.5 12.4 44 14
2009-07-29 06:51:58 51°20.027 2°56.315 46.7 12.5 44 14
2009-07-29 06:52:03 51°20.04 2°56.334 46.4 12.4 43 14.1
2009-07-29 06:52:08 51°20.052 2°56.353 46.9 12.4 45 14
2009-07-29 06:52:13 51°20.065 2°56.373 47.2 12.4 44 14.1
2009-07-29 06:52:18 51°20.077 2°56.392 47.3 12.5 44 14
2009-07-29 06:52:23 51°20.089 2°56.411 47 12.4 44 14.1
2009-07-29 06:52:28 51°20.102 2°56.43 46.8 12.4 44 14
2009-07-29 06:52:33 51°20.114 2°56.449 46.7 12.4 44 14.1
2009-07-29 06:52:38 51°20.127 2°56.468 46.4 12.4 44 13.9
2009-07-29 06:52:43 51°20.139 2°56.487 46.8 12.5 44 14
2009-07-29 06:52:49 51°20.154 2°56.51 46 12.5 43 14.1
2009-07-29 06:52:53 51°20.164 2°56.526 47 12.5 45 14.1
2009-07-29 06:52:57 51°20.174 2°56.541 46.6 12.4 42 14
2009-07-29 06:53:03 51°20.189 2°56.564 46.6 12.5 46 14
2009-07-29 06:53:09 51°20.204 2°56.587 47.3 12.5 44 14.1
2009-07-29 06:53:13 51°20.213 2°56.604 48.1 12.5 46 14.1
2009-07-29 06:53:18 51°20.225 2°56.623 48.4 12.5 45 14.1
2009-07-29 06:53:23 51°20.237 2°56.643 48.5 12.5 46 14.1
2009-07-29 06:53:28 51°20.25 2°56.663 48.6 12.5 46 14.1
2009-07-29 06:53:33 51°20.262 2°56.683 49 12.5 46 14.2
2009-07-29 06:53:38 51°20.274 2°56.703 49.2 12.5 46 14.1
2009-07-29 06:53:44 51°20.288 2°56.727 49.3 12.5 46 14
2009-07-29 06:53:49 51°20.3 2°56.747 49.3 12.6 46 14.2
2009-07-29 06:53:53 51°20.31 2°56.762 48.7 12.6 45 14.1
2009-07-29 06:53:58 51°20.322 2°56.783 49.1 12.5 47 14
2009-07-29 06:54:03 51°20.334 2°56.803 49.4 12.5 46 14.2
2009-07-29 06:54:09 51°20.348 2°56.827 48.9 12.6 46 14.3
2009-07-29 06:54:13 51°20.358 2°56.842 48.5 12.6 45 14.1
2009-07-29 06:54:18 51°20.37 2°56.862 48.5 12.5 46 14.2
2009-07-29 06:54:22 51°20.38 2°56.878 48.4 12.5 46 14.2
2009-07-29 06:54:28 51°20.395 2°56.902 48.4 12.6 46 14.2
2009-07-29 06:54:33 51°20.407 2°56.922 48.6 12.6 47 14.2
2009-07-29 06:54:38 51°20.419 2°56.942 48.9 12.6 46 14.1
2009-07-29 06:54:43 51°20.431 2°56.962 48.6 12.6 46 14.1
2009-07-29 06:54:48 51°20.443 2°56.983 48.7 12.6 46 14.2
2009-07-29 06:54:53 51°20.455 2°57.002 48.2 12.6 44 14.1
2009-07-29 06:54:58 51°20.467 2°57.022 48 12.6 46 14.3
2009-07-29 06:55:03 51°20.48 2°57.042 48.2 12.6 45 14
2009-07-29 06:55:09 51°20.494 2°57.065 48.2 12.5 45 14
2009-07-29 06:55:13 51°20.504 2°57.081 47.5 12.5 44 14.2
2009-07-29 06:55:17 51°20.514 2°57.097 48 12.5 46 14.1
2009-07-29 06:55:23 51°20.529 2°57.12 48 12.5 44 14.2
2009-07-29 06:55:29 51°20.544 2°57.144 48 12.5 46 14.2
2009-07-29 06:55:33 51°20.553 2°57.159 47.7 12.5 44 14.2
2009-07-29 06:55:37 51°20.563 2°57.175 48 12.5 46 14.2
2009-07-29 06:55:43 51°20.578 2°57.198 47.8 12.5 44 14.1
2009-07-29 06:55:48 51°20.59 2°57.218 47.2 12.4 45 14
2009-07-29 06:55:53 51°20.603 2°57.237 46.5 12.5 43 14.1
2009-07-29 06:55:58 51°20.616 2°57.255 45.5 12.5 42 14
2009-07-29 06:56:03 51°20.628 2°57.275 46.5 12.5 45 14.3
2009-07-29 06:56:08 51°20.641 2°57.293 45.5 12.5 42 14
2009-07-29 06:56:13 51°20.653 2°57.313 46 12.5 45 14.2
2009-07-29 06:56:18 51°20.666 2°57.331 45.8 12.5 41 14.2
2009-07-29 06:56:23 51°20.678 2°57.351 45.8 12.5 44 14.1
2009-07-29 06:56:29 51°20.693 2°57.374 46.2 12.5 44 14.2
2009-07-29 06:56:33 51°20.703 2°57.389 47.1 12.5 45 14
2009-07-29 06:56:38 51°20.716 2°57.408 47.2 12.5 44 14
2009-07-29 06:56:43 51°20.727 2°57.428 47.9 12.5 46 14.3
2009-07-29 06:56:48 51°20.74 2°57.447 47.7 12.5 44 14.2
2009-07-29 06:56:53 51°20.752 2°57.467 48.1 12.5 46 14.2
2009-07-29 06:56:58 51°20.765 2°57.487 48 12.5 44 14.2
2009-07-29 06:57:04 51°20.779 2°57.511 48.2 12.6 46 14.2
2009-07-29 06:57:08 51°20.789 2°57.526 48.3 12.5 45 14.1
2009-07-29 06:57:13 51°20.801 2°57.546 48.3 12.6 46 14.1
2009-07-29 06:57:18 51°20.813 2°57.566 48.3 12.5 45 14.1
2009-07-29 06:57:23 51°20.825 2°57.586 47.9 12.5 45 14.2
2009-07-29 06:57:28 51°20.838 2°57.605 48.1 12.5 45 14.1
2009-07-29 06:57:33 51°20.85 2°57.625 48.4 12.5 46 14.2
2009-07-29 06:57:38 51°20.863 2°57.643 46.5 12.5 41 14.2
2009-07-29 06:57:43 51°20.875 2°57.662 44.9 12.5 43 14.1
2009-07-29 06:57:49 51°20.891 2°57.683 43.7 12.5 38 14.2
2009-07-29 06:57:53 51°20.902 2°57.698 42.7 12.5 41 14.1
2009-07-29 06:57:57 51°20.913 2°57.711 41.5 12.5 38 14.2
2009-07-29 06:58:03 51°20.929 2°57.732 40.8 12.5 39 14.2
2009-07-29 06:58:08 51°20.943 2°57.749 39.8 12.5 36 14.2
2009-07-29 06:58:13 51°20.957 2°57.765 38.6 12.5 37 14.3
2009-07-29 06:58:18 51°20.971 2°57.782 38.5 12.5 37 14.2
2009-07-29 06:58:23 51°20.985 2°57.798 37.8 12.6 36 14.2
2009-07-29 06:58:28 51°20.999 2°57.814 37.7 12.5 36 14.1
2009-07-29 06:58:33 51°21.013 2°57.83 37.2 12.5 36 14.2
2009-07-29 06:58:38 51°21.027 2°57.846 37.1 12.5 36 14.2
2009-07-29 06:58:43 51°21.041 2°57.862 37.2 12.5 35 14.2
2009-07-29 06:58:49 51°21.058 2°57.881 36.6 12.5 35 14.2
2009-07-29 06:58:53 51°21.07 2°57.894 36.8 12.5 36 14.2
2009-07-29 06:58:58 51°21.084 2°57.91 36.8 12.5 35 14.3
2009-07-29 06:59:03 51°21.098 2°57.927 37 12.5 36 14.2
2009-07-29 06:59:08 51°21.112 2°57.942 36.8 12.5 35 14.2
2009-07-29 06:59:13 51°21.126 2°57.959 36.7 12.5 36 14.3
2009-07-29 06:59:18 51°21.14 2°57.975 37.1 12.5 36 14.3
2009-07-29 06:59:23 51°21.154 2°57.991 37.8 12.5 36 14.3
2009-07-29 06:59:29 51°21.171 2°58.01 37.6 12.5 36 14.3
2009-07-29 06:59:33 51°21.183 2°58.023 37.4 12.5 36 14.3
2009-07-29 06:59:38 51°21.197 2°58.04 37.4 12.6 36 14.3
2009-07-29 06:59:43 51°21.211 2°58.056 37.4 12.6 35 14.4
2009-07-29 06:59:48 51°21.225 2°58.072 37.3 12.5 36 14.4
2009-07-29 06:59:53 51°21.239 2°58.089 37.7 12.5 36 14.4
2009-07-29 06:59:58 51°21.253 2°58.105 37.5 12.5 36 14.4
2009-07-29 07:00:03 51°21.267 2°58.122 38.2 12.5 37 14.4
2009-07-29 07:00:08 51°21.281 2°58.138 38 12.5 36 14.4
2009-07-29 07:00:13 51°21.294 2°58.155 38 12.5 37 14.4
2009-07-29 07:00:18 51°21.308 2°58.171 38.4 12.5 37 14.2
2009-07-29 07:00:23 51°21.322 2°58.188 38.4 12.5 37 14.4
2009-07-29 07:00:28 51°21.336 2°58.204 38.3 12.5 36 14.4
2009-07-29 07:00:33 51°21.35 2°58.221 38.4 12.5 38 14.4
2009-07-29 07:00:38 51°21.364 2°58.237 38.4 12.5 36 14.4
2009-07-29 07:00:42 51°21.375 2°58.25 38.2 12.5 37 14.5
2009-07-29 07:00:49 51°21.395 2°58.273 38.2 12.5 36 14.4
2009-07-29 07:00:53 51°21.406 2°58.287 38.1 12.5 37 14.5
2009-07-29 07:00:58 51°21.42 2°58.303 37.9 12.5 36 14.4
2009-07-29 07:01:03 51°21.433 2°58.32 38.6 12.5 38 14.5
2009-07-29 07:01:08 51°21.447 2°58.336 38.2 12.5 35 14.5
2009-07-29 07:01:13 51°21.461 2°58.353 38.1 12.5 37 14.5
2009-07-29 07:01:18 51°21.475 2°58.369 38.3 12.5 36 14.5
2009-07-29 07:01:23 51°21.489 2°58.386 38.3 12.5 37 14.5
2009-07-29 07:01:28 51°21.503 2°58.402 38.8 12.5 37 14.5
2009-07-29 07:01:33 51°21.517 2°58.419 38.7 12.5 37 14.5
2009-07-29 07:01:38 51°21.531 2°58.436 38.7 12.5 37 14.4
2009-07-29 07:01:43 51°21.544 2°58.452 38.7 12.5 37 14.6
2009-07-29 07:01:49 51°21.561 2°58.473 38.7 12.5 37 14.6
2009-07-29 07:01:53 51°21.572 2°58.486 39.3 12.5 38 14.5
2009-07-29 07:01:58 51°21.586 2°58.503 39.8 12.6 38 14.5
2009-07-29 07:02:04 51°21.602 2°58.524 39.8 12.6 38 14.5
2009-07-29 07:02:08 51°21.613 2°58.537 39.5 12.6 38 14.5
2009-07-29 07:02:13 51°21.627 2°58.554 39 12.5 37 14.6
2009-07-29 07:02:18 51°21.641 2°58.571 38.8 12.6 37 14.5
2009-07-29 07:02:24 51°21.657 2°58.592 39.2 12.6 38 14.4
2009-07-29 07:02:28 51°21.668 2°58.605 39.3 12.6 38 14.5
2009-07-29 07:02:33 51°21.682 2°58.622 39.3 12.7 37 14.5
2009-07-29 07:02:38 51°21.696 2°58.639 39 12.6 37 14.5
2009-07-29 07:02:44 51°21.713 2°58.66 38.9 12.6 37 14.5
2009-07-29 07:02:49 51°21.727 2°58.677 38.6 12.6 37 14.7
2009-07-29 07:02:53 51°21.738 2°58.69 38.8 12.6 37 14.5
2009-07-29 07:02:58 51°21.751 2°58.708 39.5 12.6 39 14.7
2009-07-29 07:03:03 51°21.765 2°58.725 39.6 12.7 37 14.6
2009-07-29 07:03:08 51°21.779 2°58.742 39.4 12.6 38 14.5
2009-07-29 07:03:13 51°21.793 2°58.759 39.8 12.7 38 14.6
2009-07-29 07:03:18 51°21.807 2°58.776 39.3 12.6 38 14.6
2009-07-29 07:03:24 51°21.823 2°58.797 39.1 12.6 38 14.7
2009-07-29 07:03:28 51°21.834 2°58.81 38.9 12.6 37 14.7
2009-07-29 07:03:33 51°21.848 2°58.827 38.9 12.6 38 14.7
2009-07-29 07:03:38 51°21.862 2°58.844 38.9 12.6 37 14.7
2009-07-29 07:03:43 51°21.876 2°58.861 38.7 12.6 37 14.6
2009-07-29 07:03:48 51°21.89 2°58.878 38.5 12.6 37 14.6
2009-07-29 07:03:53 51°21.904 2°58.894 38.1 12.6 36 14.6
2009-07-29 07:03:58 51°21.918 2°58.911 38.5 12.6 38 14.6
2009-07-29 07:04:03 51°21.932 2°58.928 38.9 12.5 37 14.7
2009-07-29 07:04:08 51°21.945 2°58.945 39.2 12.6 38 14.6
2009-07-29 07:04:13 51°21.96 2°58.962 38.6 12.6 36 14.5
2009-07-29 07:04:18 51°21.973 2°58.979 39.1 12.6 39 14.7
2009-07-29 07:04:24 51°21.99 2°58.999 39.3 12.7 37 14.7
2009-07-29 07:04:29 51°22.004 2°59.017 39.3 12.6 38 14.7
2009-07-29 07:04:33 51°22.015 2°59.03 39.2 12.5 37 14.7
2009-07-29 07:04:38 51°22.029 2°59.047 38.6 12.6 37 14.7
2009-07-29 07:04:44 51°22.045 2°59.067 38.6 12.6 37 14.7
2009-07-29 07:04:49 51°22.059 2°59.084 38.5 12.6 37 14.7
2009-07-29 07:04:53 51°22.07 2°59.098 38.9 12.5 38 14.7
2009-07-29 07:04:58 51°22.084 2°59.115 39.3 12.5 38 14.8
2009-07-29 07:05:03 51°22.098 2°59.132 39.2 12.6 38 14.7
2009-07-29 07:05:09 51°22.114 2°59.152 39.2 12.5 37 14.7
2009-07-29 07:05:13 51°22.125 2°59.166 39.6 12.6 39 14.7
2009-07-29 07:05:18 51°22.139 2°59.183 39.5 12.6 37 14.7
2009-07-29 07:05:23 51°22.153 2°59.2 39.3 12.6 38 14.8
2009-07-29 07:05:29 51°22.169 2°59.221 40 12.6 39 14.8
2009-07-29 07:05:33 51°22.18 2°59.235 40.5 12.6 39 14.8
2009-07-29 07:05:37 51°22.191 2°59.249 40.1 12.6 38 15
2009-07-29 07:05:43 51°22.207 2°59.269 40 12.5 38 15.1
2009-07-29 07:05:48 51°22.221 2°59.286 39.5 12.6 38 14.9
2009-07-29 07:05:53 51°22.235 2°59.303 39.3 12.5 38 15.1
2009-07-29 07:05:58 51°22.249 2°59.32 39.1 12.5 37 15
2009-07-29 07:06:03 51°22.262 2°59.337 39.1 12.5 38 15.2
2009-07-29 07:06:08 51°22.276 2°59.354 39.2 12.5 38 14.9
2009-07-29 07:06:13 51°22.29 2°59.371 39.1 12.5 37 15.2
2009-07-29 07:06:18 51°22.304 2°59.388 38.6 12.5 37 15.2
2009-07-29 07:06:24 51°22.32 2°59.408 39 12.6 38 15.1
2009-07-29 07:06:28 51°22.332 2°59.422 39.2 12.6 37 15.2
2009-07-29 07:06:33 51°22.345 2°59.439 38.9 12.6 37 15.2
2009-07-29 07:06:38 51°22.359 2°59.456 38.8 12.6 37 15.2
2009-07-29 07:06:44 51°22.376 2°59.476 38.8 12.6 37 15.2
2009-07-29 07:06:49 51°22.39 2°59.493 38.8 12.6 37 15.4
2009-07-29 07:06:53 51°22.401 2°59.506 38.8 12.6 37 15.4
2009-07-29 07:06:58 51°22.415 2°59.523 38.8 12.6 37 15.2
2009-07-29 07:07:04 51°22.432 2°59.543 39 12.6 37 15.4
2009-07-29 07:07:09 51°22.446 2°59.56 38.9 12.6 37 15.3
2009-07-29 07:07:13 51°22.457 2°59.574 39.4 12.6 38 15.6
2009-07-29 07:07:18 51°22.471 2°59.591 39.5 12.6 37 15.5
2009-07-29 07:07:23 51°22.485 2°59.608 39.5 12.6 38 15.6
2009-07-29 07:07:29 51°22.501 2°59.628 39.2 12.7 37 15.5
2009-07-29 07:07:33 51°22.512 2°59.642 39.2 12.7 38 15.5
2009-07-29 07:07:38 51°22.526 2°59.659 40 12.7 38 15.6
2009-07-29 07:07:43 51°22.54 2°59.677 40.4 12.6 38 15.4
2009-07-29 07:07:48 51°22.554 2°59.694 39.6 12.6 38 15.7
2009-07-29 07:07:53 51°22.568 2°59.711 39.3 12.7 38 15.5
2009-07-29 07:07:57 51°22.579 2°59.725 39.3 12.7 37 15.5
2009-07-29 07:08:03 51°22.596 2°59.745 39.1 12.7 38 15.6
2009-07-29 07:08:09 51°22.612 2°59.766 39.3 12.7 38 15.6
2009-07-29 07:08:13 51°22.623 2°59.78 39.6 12.7 38 15.5
2009-07-29 07:08:17 51°22.635 2°59.794 39.6 12.7 38 15.7
2009-07-29 07:08:23 51°22.652 2°59.814 39.2 12.8 37 15.6
2009-07-29 07:08:28 51°22.665 2°59.832 39 12.8 38 15.6
2009-07-29 07:08:33 51°22.68 2°59.849 38.7 12.7 37 15.6
2009-07-29 07:08:38 51°22.694 2°59.866 38.5 12.8 38 15.7
2009-07-29 07:08:43 51°22.708 2°59.883 38.3 12.8 37 15.8
2009-07-29 07:08:48 51°22.722 2°59.9 38.3 12.8 38 15.6
2009-07-29 07:08:53 51°22.736 2°59.918 38.6 12.8 38 15.9
2009-07-29 07:08:58 51°22.75 2°59.935 38.9 12.8 38 15.9
2009-07-29 07:09:03 51°22.764 2°59.953 39.2 12.9 38 15.9
2009-07-29 07:09:08 51°22.779 2°59.97 39 12.9 37 16
2009-07-29 07:09:13 51°22.793 2°59.987 38.8 12.9 38 16.1
2009-07-29 07:09:18 51°22.807 3°0.005 38.8 12.9 37 16.1
2009-07-29 07:09:24 51°22.824 3°0.026 38.9 12.9 38 16.2
2009-07-29 07:09:28 51°22.835 3°0.04 39.1 12.9 38 16.1
2009-07-29 07:09:33 51°22.849 3°0.057 39.2 12.9 37 16.2
2009-07-29 07:09:38 51°22.863 3°0.075 38.6 12.8 37 16.3
2009-07-29 07:09:42 51°22.875 3°0.089 39 13 38 16.4
2009-07-29 07:09:49 51°22.895 3°0.113 39.1 12.9 38 16.4
2009-07-29 07:09:53 51°22.906 3°0.127 39 13 38 16.4
2009-07-29 07:09:58 51°22.92 3°0.145 39.1 12.9 37 16.4
2009-07-29 07:10:04 51°22.937 3°0.166 39.3 12.9 38 16.5
2009-07-29 07:10:09 51°22.952 3°0.182 38.6 12.9 34 16.5
2009-07-29 07:10:13 51°22.964 3°0.195 36.3 12.9 35 16.6
2009-07-29 07:10:18 51°22.978 3°0.211 35.5 12.9 33 16.8
2009-07-29 07:10:23 51°22.993 3°0.227 34.5 12.9 33 16.7
2009-07-29 07:10:28 51°23.009 3°0.241 33.2 12.9 30 16.7
2009-07-29 07:10:33 51°23.024 3°0.256 32 12.9 31 16.9
2009-07-29 07:10:38 51°23.04 3°0.271 31.7 12.9 31 17
2009-07-29 07:10:43 51°23.055 3°0.285 31.1 13 30 17
2009-07-29 07:10:48 51°23.07 3°0.3 30.6 13 30 17.2
2009-07-29 07:10:53 51°23.086 3°0.313 30.1 12.9 29 17.2
2009-07-29 07:10:58 51°23.102 3°0.328 30.1 13 30 17.3
2009-07-29 07:11:03 51°23.118 3°0.342 29.8 13 29 17.4
2009-07-29 07:11:09 51°23.136 3°0.359 29.6 13 30 17.5
2009-07-29 07:11:13 51°23.149 3°0.37 29.8 13 29 17.6
2009-07-29 07:11:18 51°23.165 3°0.384 29.1 13 29 17.6
2009-07-29 07:11:23 51°23.181 3°0.397 28.6 13 28 17.6
2009-07-29 07:11:29 51°23.2 3°0.414 28.6 13 29 17.6
2009-07-29 07:11:33 51°23.212 3°0.426 29.4 13 29 17.6
2009-07-29 07:11:38 51°23.228 3°0.44 29.6 13 29 17.7
2009-07-29 07:11:43 51°23.244 3°0.454 29.7 13 29 17.7
2009-07-29 07:11:49 51°23.263 3°0.471 29.5 13.1 29 17.7
2009-07-29 07:11:53 51°23.275 3°0.482 29.8 13 29 17.8
2009-07-29 07:11:57 51°23.288 3°0.493 29.5 13 29 17.9
2009-07-29 07:12:03 51°23.307 3°0.51 28.7 13 28 17.8
2009-07-29 07:12:08 51°23.323 3°0.523 28.7 12.9 28 17.9
2009-07-29 07:12:13 51°23.339 3°0.536 29.2 12.8 27 18
2009-07-29 07:12:18 51°23.355 3°0.546 25.8 12.7 23 18.1
2009-07-29 07:12:23 51°23.372 3°0.554 19.2 12.5 16 18
2009-07-29 07:12:28 51°23.388 3°0.562 16.7 12.5 18 18.2
2009-07-29 07:12:33 51°23.405 3°0.569 14.3 12.5 13 18.4
2009-07-29 07:12:38 51°23.422 3°0.574 10.9 12.5 11 18.6
2009-07-29 07:12:43 51°23.439 3°0.58 9.5 12.5 11 18.6
2009-07-29 07:12:48 51°23.456 3°0.583 7.1 12.5 7 18.9
2009-07-29 07:12:53 51°23.474 3°0.587 5.9 12.5 8 18.9
2009-07-29 07:12:58 51°23.491 3°0.589 4.1 12.5 5 18.9
2009-07-29 07:13:04 51°23.512 3°0.593 3.1 12.5 6 19
2009-07-29 07:13:08 51°23.526 3°0.595 2.6 12.5 4 19.2
2009-07-29 07:13:13 51°23.543 3°0.596 1.5 12.6 4 19.2
2009-07-29 07:13:18 51°23.56 3°0.598 1.2 12.5 4 19.2
2009-07-29 07:13:24 51°23.581 3°0.6 0.5 12.5 3 19.3
2009-07-29 07:13:29 51°23.599 3°0.601 -999 12.6 3 19.3
2009-07-29 07:13:33 51°23.613 3°0.602 -999 12.6 3 19.4
2009-07-29 07:13:38 51°23.63 3°0.604 359.7 12.6 3 19.5
2009-07-29 07:13:43 51°23.648 3°0.605 359.5 12.6 2 19.5
2009-07-29 07:13:49 51°23.669 3°0.605 358.8 12.5 2 19.6
2009-07-29 07:13:53 51°23.682 3°0.605 357.1 12.5 359 19.7
2009-07-29 07:13:58 51°23.7 3°0.602 354.3 12.4 357 19.8
2009-07-29 07:14:03 51°23.717 3°0.602 353.8 12.4 358 19.9
2009-07-29 07:14:09 51°23.738 3°0.599 352.3 12.4 355 19.9
2009-07-29 07:14:13 51°23.751 3°0.597 351.7 12.4 356 19.8
2009-07-29 07:14:18 51°23.768 3°0.594 350.9 12.3 354 19.9
2009-07-29 07:14:23 51°23.785 3°0.592 350.2 12.4 355 19.7
2009-07-29 07:14:29 51°23.806 3°0.588 350 12.4 353 19.8
2009-07-29 07:14:33 51°23.819 3°0.586 349.2 12.4 353 19.7
2009-07-29 07:14:38 51°23.836 3°0.582 348.8 12.3 352 19.7
2009-07-29 07:14:43 51°23.853 3°0.578 348.4 12.3 351 19.7
2009-07-29 07:14:49 51°23.873 3°0.572 346.6 12.3 350 19.7
2009-07-29 07:14:53 51°23.887 3°0.568 345.9 12.3 349 19.8
2009-07-29 07:14:58 51°23.903 3°0.563 345.3 12.2 348 19.8
2009-07-29 07:15:03 51°23.92 3°0.558 344.8 12.2 349 19.8
2009-07-29 07:15:08 51°23.936 3°0.552 344.1 12.2 347 19.7
2009-07-29 07:15:13 51°23.953 3°0.546 343.3 12.2 347 19.6
2009-07-29 07:15:18 51°23.969 3°0.54 343.5 12.2 348 19.5
2009-07-29 07:15:24 51°23.989 3°0.533 343.5 12.2 346 19.4
2009-07-29 07:15:28 51°24.002 3°0.528 343.4 12.2 347 19.3
2009-07-29 07:15:33 51°24.019 3°0.522 343.5 12.2 347 19.2
2009-07-29 07:15:38 51°24.035 3°0.516 343.6 12.2 347 19
2009-07-29 07:15:44 51°24.055 3°0.507 343.3 12.2 346 19.1
2009-07-29 07:15:49 51°24.071 3°0.501 342.9 12.2 346 18.8
2009-07-29 07:15:53 51°24.084 3°0.497 343.6 12.2 347 18.5
2009-07-29 07:15:58 51°24.101 3°0.49 343.7 12.2 346 18.3
2009-07-29 07:16:04 51°24.12 3°0.482 343.4 12.2 346 18.3
2009-07-29 07:16:09 51°24.137 3°0.475 342.9 12.2 345 18.1
2009-07-29 07:16:13 51°24.15 3°0.469 343.1 12.2 346 18.1
2009-07-29 07:16:18 51°24.166 3°0.462 343 12.2 345 18
2009-07-29 07:16:23 51°24.183 3°0.455 342.3 12.3 345 18
2009-07-29 07:16:29 51°24.203 3°0.447 342.5 12.3 346 17.9
2009-07-29 07:16:33 51°24.216 3°0.442 342.7 12.2 346 17.8
2009-07-29 07:16:38 51°24.232 3°0.435 342.3 12.2 346 17.9
2009-07-29 07:16:43 51°24.249 3°0.429 342.2 12.2 346 17.8
2009-07-29 07:16:49 51°24.269 3°0.421 342.2 12.3 347 17.7
2009-07-29 07:16:53 51°24.282 3°0.416 342.1 12.3 347 17.5
2009-07-29 07:16:57 51°24.295 3°0.411 343.4 12.3 348 17.7
2009-07-29 07:17:03 51°24.316 3°0.406 344.9 12.4 350 17.6
2009-07-29 07:17:09 51°24.336 3°0.4 345.6 12.4 350 17.5
2009-07-29 07:17:13 51°24.35 3°0.397 346.3 12.4 351 17.5
2009-07-29 07:17:18 51°24.367 3°0.392 346.9 12.4 351 17.4
2009-07-29 07:17:23 51°24.384 3°0.388 347.2 12.4 352 17.4
2009-07-29 07:17:28 51°24.401 3°0.384 347.6 12.4 351 17.2
2009-07-29 07:17:33 51°24.418 3°0.382 349.2 12.5 355 17
2009-07-29 07:17:38 51°24.435 3°0.378 349.9 12.4 353 17.2
2009-07-29 07:17:44 51°24.456 3°0.376 351.1 12.5 356 17.2
2009-07-29 07:17:48 51°24.469 3°0.374 352 12.5 355 16.9
2009-07-29 07:17:53 51°24.487 3°0.372 352.1 12.5 356 17
2009-07-29 07:17:58 51°24.504 3°0.37 352.8 12.5 356 16.9
2009-07-29 07:18:04 51°24.525 3°0.368 352.9 12.5 357 16.9
2009-07-29 07:18:09 51°24.542 3°0.367 353.6 12.5 357 17.2
2009-07-29 07:18:13 51°24.556 3°0.365 353.5 12.5 356 17.6
2009-07-29 07:18:18 51°24.573 3°0.363 353.2 12.5 355 17.4
2009-07-29 07:18:24 51°24.594 3°0.36 352.9 12.5 355 18
2009-07-29 07:18:29 51°24.611 3°0.358 353.1 12.5 356 18.9
2009-07-29 07:18:33 51°24.625 3°0.357 354 12.5 356 19.5
2009-07-29 07:18:38 51°24.643 3°0.354 354.2 12.6 356 19.6
2009-07-29 07:18:42 51°24.657 3°0.353 354.9 12.6 357 19.9
2009-07-29 07:18:49 51°24.681 3°0.351 355.1 12.5 357 20.1
2009-07-29 07:18:53 51°24.695 3°0.351 355.7 12.6 358 20.1
2009-07-29 07:18:58 51°24.712 3°0.35 356.2 12.6 358 19.9
2009-07-29 07:19:03 51°24.73 3°0.349 356.2 12.7 359 20.3
2009-07-29 07:19:09 51°24.751 3°0.35 357.8 12.7 1 20.2
2009-07-29 07:19:13 51°24.765 3°0.35 358.6 12.6 -999 20.1
2009-07-29 07:19:18 51°24.782 3°0.35 358.7 12.6 1 20.1
2009-07-29 07:19:23 51°24.8 3°0.353 1.8 12.7 6 19.9
2009-07-29 07:19:28 51°24.817 3°0.356 3.5 12.6 4 20
2009-07-29 07:19:33 51°24.834 3°0.359 4.4 12.6 7 19.7
2009-07-29 07:19:38 51°24.852 3°0.362 5.9 12.6 7 19.8
2009-07-29 07:19:43 51°24.869 3°0.366 6.6 12.6 8 19.3
2009-07-29 07:19:49 51°24.89 3°0.373 8.5 12.6 11 18.9
2009-07-29 07:19:53 51°24.903 3°0.378 11.2 12.6 13 18.5
2009-07-29 07:19:58 51°24.92 3°0.385 13.2 12.6 15 18.3
2009-07-29 07:20:04 51°24.94 3°0.394 14.6 12.6 15 17.7
2009-07-29 07:20:08 51°24.954 3°0.401 16.3 12.6 18 17.7
2009-07-29 07:20:13 51°24.97 3°0.41 17.4 12.6 18 17.6
2009-07-29 07:20:18 51°24.986 3°0.421 20.6 12.5 23 17.4
2009-07-29 07:20:24 51°25.005 3°0.435 24.6 12.5 26 17
2009-07-29 07:20:28 51°25.017 3°0.446 28.2 12.5 28 16.9
2009-07-29 07:20:33 51°25.032 3°0.46 30.9 12.5 30 16.8
2009-07-29 07:20:38 51°25.046 3°0.475 33.8 12.5 34 16.6
2009-07-29 07:20:44 51°25.063 3°0.494 35.7 12.4 35 16.6
2009-07-29 07:20:49 51°25.077 3°0.512 38 12.4 38 16.6
2009-07-29 07:20:53 51°25.087 3°0.525 40.6 12.5 39 16.2
2009-07-29 07:20:58 51°25.1 3°0.544 42.3 12.4 41 16.3
2009-07-29 07:21:04 51°25.116 3°0.566 44.1 12.4 42 16.3
2009-07-29 07:21:09 51°25.128 3°0.585 45.6 12.5 45 16.3
2009-07-29 07:21:13 51°25.138 3°0.601 46.8 12.5 44 16
2009-07-29 07:21:18 51°25.149 3°0.622 50.1 12.5 49 16.1
2009-07-29 07:21:23 51°25.16 3°0.643 51.9 12.4 48 15.9
2009-07-29 07:21:28 51°25.171 3°0.665 53.9 12.5 52 15.9
2009-07-29 07:21:33 51°25.182 3°0.687 54.9 12.5 51 15.9
2009-07-29 07:21:38 51°25.192 3°0.709 56.6 12.4 55 16
2009-07-29 07:21:43 51°25.202 3°0.731 57.4 12.5 53 15.8
2009-07-29 07:21:48 51°25.212 3°0.754 57 12.5 57 15.7
2009-07-29 07:21:53 51°25.221 3°0.777 59 12.5 57 15.6
2009-07-29 07:21:58 51°25.23 3°0.801 63.2 12.4 61 15.6
2009-07-29 07:22:04 51°25.239 3°0.831 65.4 12.4 62 15.5
2009-07-29 07:22:08 51°25.245 3°0.85 67.2 12.4 64 15.3
2009-07-29 07:22:13 51°25.252 3°0.876 69.4 12.4 66 15.2
2009-07-29 07:22:18 51°25.259 3°0.901 70.4 12.3 67 15.2
2009-07-29 07:22:24 51°25.266 3°0.931 72.3 12.3 69 15.1
2009-07-29 07:22:29 51°25.273 3°0.957 72.7 12.3 68 15
2009-07-29 07:22:33 51°25.277 3°0.977 73.6 12.3 70 15
2009-07-29 07:22:38 51°25.283 3°1.003 74.3 12.3 70 15.1
2009-07-29 07:22:43 51°25.289 3°1.029 74.8 12.3 71 15
2009-07-29 07:22:49 51°25.293 3°1.06 78.1 12.2 76 15
2009-07-29 07:22:53 51°25.297 3°1.081 78.9 12.2 72 15
2009-07-29 07:22:58 51°25.3 3°1.107 81.2 12.1 79 15
2009-07-29 07:23:03 51°25.305 3°1.134 81.9 12.3 75 15.1
2009-07-29 07:23:09 51°25.309 3°1.165 81.3 12.1 78 15
2009-07-29 07:23:13 51°25.311 3°1.187 84.1 12.2 80 15.1
2009-07-29 07:23:17 51°25.315 3°1.208 82.9 12.3 75 15.1
2009-07-29 07:23:23 51°25.318 3°1.239 83.4 12.2 81 15.1
2009-07-29 07:23:29 51°25.322 3°1.271 85.2 12.2 80 15
2009-07-29 07:23:33 51°25.325 3°1.293 84.4 12.2 78 14.9
2009-07-29 07:23:37 51°25.327 3°1.314 84.1 12.2 79 14.9
2009-07-29 07:23:43 51°25.331 3°1.346 85 12.3 80 14.9
2009-07-29 07:23:48 51°25.334 3°1.373 85 12.3 80 14.9
2009-07-29 07:23:53 51°25.338 3°1.399 83.8 12.3 78 14.8
2009-07-29 07:23:58 51°25.341 3°1.426 84.5 12.3 80 14.7
2009-07-29 07:24:03 51°25.344 3°1.453 85 12.3 79 14.6
2009-07-29 07:24:08 51°25.347 3°1.48 84.8 12.3 79 14.5
2009-07-29 07:24:13 51°25.351 3°1.507 84.1 12.4 78 14.5
2009-07-29 07:24:18 51°25.354 3°1.533 83.3 12.3 78 14.4
2009-07-29 07:24:24 51°25.358 3°1.566 83.7 12.3 79 14.4
2009-07-29 07:24:28 51°25.361 3°1.587 84.3 12.4 79 14.3
2009-07-29 07:24:33 51°25.364 3°1.614 84.6 12.4 79 14.3
2009-07-29 07:24:38 51°25.368 3°1.641 84.3 12.4 79 14.2
2009-07-29 07:24:44 51°25.371 3°1.674 84.3 12.5 79 14.2
2009-07-29 07:24:49 51°25.375 3°1.701 84.3 12.4 78 14.1
2009-07-29 07:24:53 51°25.377 3°1.722 84.4 12.4 79 14.1
2009-07-29 07:24:58 51°25.382 3°1.749 82.5 12.5 75 14.1
2009-07-29 07:25:04 51°25.386 3°1.782 82.4 12.4 79 14
2009-07-29 07:25:09 51°25.391 3°1.808 81.6 12.4 74 14
2009-07-29 07:25:13 51°25.394 3°1.83 80.5 12.4 76 14
2009-07-29 07:25:18 51°25.399 3°1.856 80.2 12.5 74 14
2009-07-29 07:25:24 51°25.405 3°1.888 79.4 12.4 74 13.9
2009-07-29 07:25:29 51°25.41 3°1.915 79.4 12.5 74 14
2009-07-29 07:25:33 51°25.414 3°1.936 78.6 12.5 73 13.9
2009-07-29 07:25:38 51°25.418 3°1.962 78.5 12.5 74 13.8
2009-07-29 07:25:43 51°25.424 3°1.989 78.2 12.5 72 13.9
2009-07-29 07:25:49 51°25.429 3°2.021 78 12.5 74 13.8
2009-07-29 07:25:53 51°25.434 3°2.042 78.1 12.5 72 13.8
2009-07-29 07:25:58 51°25.439 3°2.068 77.7 12.5 74 13.9
2009-07-29 07:26:03 51°25.443 3°2.095 78.4 12.5 73 13.8
2009-07-29 07:26:09 51°25.45 3°2.127 78 12.5 73 13.8
2009-07-29 07:26:13 51°25.454 3°2.148 78 12.5 74 13.8
2009-07-29 07:26:18 51°25.459 3°2.175 78.5 12.5 73 13.8
2009-07-29 07:26:23 51°25.464 3°2.202 78 12.5 73 13.8
2009-07-29 07:26:29 51°25.47 3°2.233 78.2 12.6 73 13.7
2009-07-29 07:26:33 51°25.473 3°2.255 79.2 12.5 75 13.8
2009-07-29 07:26:38 51°25.479 3°2.282 79 12.6 73 13.7
2009-07-29 07:26:43 51°25.483 3°2.308 78.5 12.6 74 13.8
2009-07-29 07:26:48 51°25.488 3°2.335 78.2 12.6 73 13.7
2009-07-29 07:26:53 51°25.493 3°2.362 78.2 12.6 74 13.6
2009-07-29 07:26:58 51°25.498 3°2.388 78.7 12.6 74 13.7
2009-07-29 07:27:03 51°25.503 3°2.415 79.2 12.6 74 13.7
2009-07-29 07:27:08 51°25.508 3°2.442 79.3 12.6 74 13.7
2009-07-29 07:27:13 51°25.512 3°2.469 79.5 12.6 74 13.6
2009-07-29 07:27:18 51°25.517 3°2.496 79.4 12.6 74 13.7
2009-07-29 07:27:24 51°25.523 3°2.528 79.2 12.6 74 13.6
2009-07-29 07:27:28 51°25.527 3°2.55 79.2 12.6 74 13.6
2009-07-29 07:27:33 51°25.531 3°2.577 79.8 12.6 75 13.6
2009-07-29 07:27:38 51°25.536 3°2.604 79.8 12.6 74 13.7
2009-07-29 07:27:42 51°25.539 3°2.625 80.5 12.5 77 13.6
2009-07-29 07:27:49 51°25.545 3°2.663 82.3 12.5 77 13.6
2009-07-29 07:27:53 51°25.548 3°2.685 81.9 12.5 76 13.7
2009-07-29 07:27:58 51°25.551 3°2.712 82.9 12.5 79 13.6
2009-07-29 07:28:04 51°25.555 3°2.744 83.6 12.5 78 13.5
2009-07-29 07:28:09 51°25.558 3°2.772 84.3 12.5 80 13.6
2009-07-29 07:28:13 51°25.561 3°2.794 84.8 12.5 79 13.5
2009-07-29 07:28:18 51°25.564 3°2.821 85.7 12.4 81 13.4
2009-07-29 07:28:23 51°25.567 3°2.849 85.9 12.5 79 13.4
2009-07-29 07:28:28 51°25.569 3°2.876 86 12.5 81 13.4
2009-07-29 07:28:33 51°25.572 3°2.903 86 12.5 80 13.3
2009-07-29 07:28:38 51°25.575 3°2.93 86 12.5 81 13.4
2009-07-29 07:28:43 51°25.578 3°2.958 86.7 12.5 81 13.4
2009-07-29 07:28:49 51°25.581 3°2.991 86.5 12.5 81 13.2
2009-07-29 07:28:53 51°25.584 3°3.012 86.9 12.5 81 13.3